Time;durP1;ratioP1;P1;durP2;ratioP2;P2;SDS_P1;SDS_P2;PMS_P1;PMS_P2;Temp;Humidity;BMP_temperature;BMP_pressure;BME280_temperature;BME280_humidity;BME280_pressure;Samples;Min_cycle;Max_cycle;Signal;HPM_P1;HPM_P2
2022/01/26 00:00:29;;;;;;;71.40;32.67;;;;;;;;;;5102946;28;20083;-78
2022/01/26 00:05:51;;;;;;;71.72;31.55;;;;;;;;;;5081222;28;20050;-79
2022/01/26 00:08:23;;;;;;;68.95;32.10;;;;;;;;;;5106834;28;20122;-79
2022/01/26 00:10:48;;;;;;;;;;;;;;;;;;5133110;28;20036;-79
2022/01/26 00:13:15;;;;;;;79.20;34.00;;;;;;;;;;5124336;28;19921;-79
2022/01/26 00:15:41;;;;;;;72.55;32.65;;;;;;;;;;5116990;28;20043;-79
2022/01/26 00:18:07;;;;;;;79.53;35.42;;;;;;;;;;5127414;28;20039;-79
2022/01/26 00:20:43;;;;;;;71.38;32.10;;;;;;;;;;5113995;28;20047;-79
2022/01/26 00:23:34;;;;;;;73.72;34.25;;;;;;;;;;5103626;28;20047;-79
2022/01/26 00:26:05;;;;;;;68.88;32.42;;;;;;;;;;5130904;28;20045;-80
2022/01/26 00:28:36;;;;;;;80.25;32.80;;;;;;;;;;5093969;28;20050;-79
2022/01/26 00:39:23;;;;;;;72.95;35.05;;;;;;;;;;5092143;27;20039;-79
2022/01/26 00:41:49;;;;;;;75.55;33.85;;;;;;;;;;5124977;27;20035;-79
2022/01/26 00:44:15;;;;;;;78.97;35.88;;;;;;;;;;5123627;27;20476;-79
2022/01/26 00:46:48;;;;;;;77.82;35.58;;;;;;;;;;5135860;27;20099;-79
2022/01/26 00:49:17;;;;;;;77.32;34.22;;;;;;;;;;5134243;27;20110;-79
2022/01/26 00:51:43;;;;;;;75.90;33.65;;;;;;;;;;5109901;27;20084;-79
2022/01/26 00:54:09;;;;;;;73.75;33.60;;;;;;;;;;5130850;27;20063;-79
2022/01/26 00:56:35;;;;;;;83.05;35.67;;;;;;;;;;5117820;27;20120;-80
2022/01/26 00:59:02;;;;;;;80.20;35.78;;;;;;;;;;5133138;27;20075;-79
2022/01/26 01:01:28;;;;;;;85.03;35.50;;;;;;;;;;5088115;27;20039;-80
2022/01/26 01:03:54;;;;;;;77.30;35.50;;;;;;;;;;5112665;28;20071;-79
2022/01/26 01:06:27;;;;;;;77.68;35.13;;;;;;;;;;5128761;27;20041;-78
2022/01/26 01:08:56;;;;;;;69.55;32.72;;;;;;;;;;5111111;27;20103;-78
2022/01/26 01:11:22;;;;;;;77.30;35.05;;;;;;;;;;5127907;27;20507;-79
2022/01/26 01:13:49;;;;;;;78.30;35.95;;;;;;;;;;5131582;27;20096;-79
2022/01/26 01:16:18;;;;;;;79.78;35.78;;;;;;;;;;5116527;27;20049;-79
2022/01/26 01:18:51;;;;;;;79.30;35.45;;;;;;;;;;5131776;27;20039;-78
2022/01/26 01:29:26;;;;;;;79.78;35.55;;;;;;;;;;5123970;27;20047;-80
2022/01/26 01:34:22;;;;;;;80.30;35.85;;;;;;;;;;5122088;27;20047;-79
2022/01/26 01:36:53;;;;;;;83.32;36.20;;;;;;;;;;5131187;27;20039;-78
2022/01/26 01:39:19;;;;;;;;;;;;;;;;;;5121356;27;20075;-80
2022/01/26 01:41:46;;;;;;;76.28;34.78;;;;;;;;;;5130532;27;20334;-79
2022/01/26 01:44:13;;;;;;;85.43;36.05;;;;;;;;;;5117203;27;20091;-79
2022/01/26 01:46:41;;;;;;;80.00;35.13;;;;;;;;;;5119793;27;20495;-79
2022/01/26 01:49:08;;;;;;;80.43;36.03;;;;;;;;;;5134929;27;20526;-79
2022/01/26 01:51:37;;;;;;;77.93;36.63;;;;;;;;;;5114510;27;20069;-78
2022/01/26 01:54:04;;;;;;;77.53;35.15;;;;;;;;;;5133529;27;20051;-78
2022/01/26 01:56:31;;;;;;;86.22;37.13;;;;;;;;;;5110831;27;20494;-79
2022/01/26 01:58:58;;;;;;;82.88;36.22;;;;;;;;;;5109487;27;20835;-80
2022/01/26 02:01:25;;;;;;;85.53;36.35;;;;;;;;;;5126755;27;20118;-79
2022/01/26 02:03:51;;;;;;;80.13;36.88;;;;;;;;;;5134124;27;20375;-78
2022/01/26 02:06:18;;;;;;;85.32;37.08;;;;;;;;;;5115739;27;20047;-78
2022/01/26 02:08:44;;;;;;;81.65;36.88;;;;;;;;;;5103444;28;20085;-79
2022/01/26 02:11:12;;;;;;;80.15;35.63;;;;;;;;;;5100788;27;20183;-79
2022/01/26 02:13:52;;;;;;;85.05;37.05;;;;;;;;;;5097691;27;20040;-79
2022/01/26 02:16:26;;;;;;;82.80;35.67;;;;;;;;;;5115400;27;20066;-79
2022/01/26 02:55:23;;;;;;;75.80;32.38;;;;;;;;;;5124886;27;20119;-79
2022/01/26 03:03:26;;;;;;;75.45;33.67;;;;;;;;;;5122949;27;20097;-80
2022/01/26 03:05:34;;;;;;;74.80;33.45;;;;;;;;;;5109910;27;20271;-80
2022/01/26 03:08:05;;;;;;;77.85;33.78;;;;;;;;;;5112678;27;20043;-79
2022/01/26 03:10:47;;;;;;;80.55;34.00;;;;;;;;;;5103121;28;20051;-78
2022/01/26 03:13:21;;;;;;;78.45;35.15;;;;;;;;;;5120955;27;20042;-83
2022/01/26 03:15:58;;;;;;;78.20;33.33;;;;;;;;;;5124774;27;20035;-80
2022/01/26 03:21:08;;;;;;;80.05;34.42;;;;;;;;;;5114835;27;20050;-79
2022/01/26 03:32:18;;;;;;;86.25;35.92;;;;;;;;;;5110507;28;20545;-79
2022/01/26 03:34:28;;;;;;;88.18;37.53;;;;;;;;;;5125072;27;20039;-80
2022/01/26 03:37:02;;;;;;;88.68;36.65;;;;;;;;;;5132333;27;20066;-79
2022/01/26 03:39:29;;;;;;;84.30;37.05;;;;;;;;;;5127807;27;20488;-79
2022/01/26 03:42:16;;;;;;;84.18;36.28;;;;;;;;;;5114252;27;20054;-79
2022/01/26 03:44:42;;;;;;;87.15;36.50;;;;;;;;;;5130794;27;20182;-79
2022/01/26 03:47:09;;;;;;;83.60;35.35;;;;;;;;;;5113746;28;20054;-79
2022/01/26 03:49:36;;;;;;;79.97;34.38;;;;;;;;;;5132314;27;20122;-78
2022/01/26 03:52:03;;;;;;;78.18;33.88;;;;;;;;;;5131471;27;20433;-79
2022/01/26 03:54:29;;;;;;;85.90;36.95;;;;;;;;;;5111840;28;20047;-80
2022/01/26 03:56:55;;;;;;;87.90;34.95;;;;;;;;;;5133393;28;20047;-80
2022/01/26 03:59:21;;;;;;;82.43;33.97;;;;;;;;;;5132600;28;20529;-79
2022/01/26 04:01:48;;;;;;;79.47;34.22;;;;;;;;;;5130074;28;20043;-79
2022/01/26 04:04:14;;;;;;;80.82;33.60;;;;;;;;;;5129640;28;20066;-79
2022/01/26 04:06:40;;;;;;;75.97;33.08;;;;;;;;;;5126699;28;20434;-80
2022/01/26 04:09:09;;;;;;;80.68;33.95;;;;;;;;;;5120096;27;20047;-80
2022/01/26 04:11:42;;;;;;;79.07;34.30;;;;;;;;;;5134646;27;20045;-79
2022/01/26 04:14:11;;;;;;;80.28;34.33;;;;;;;;;;5107228;27;20473;-80
2022/01/26 04:16:38;;;;;;;81.40;33.78;;;;;;;;;;5133782;27;20501;-78
2022/01/26 04:19:04;;;;;;;85.80;35.17;;;;;;;;;;5114663;27;20432;-80
2022/01/26 04:26:39;;;;;;;85.50;36.10;;;;;;;;;;5121143;27;20138;-79
2022/01/26 04:29:10;;;;;;;88.65;35.25;;;;;;;;;;5129721;27;20515;-79
2022/01/26 04:31:36;;;;;;;85.53;34.92;;;;;;;;;;5108952;27;20460;-79
2022/01/26 04:34:03;;;;;;;90.53;35.83;;;;;;;;;;5116073;27;20086;-79
2022/01/26 04:36:38;;;;;;;85.25;34.70;;;;;;;;;;5133338;27;20465;-79
2022/01/26 04:39:09;;;;;;;86.57;35.10;;;;;;;;;;5118860;27;20149;-79
2022/01/26 04:41:42;;;;;;;90.53;35.40;;;;;;;;;;5121619;27;21971;-79
2022/01/26 04:44:17;;;;;;;84.40;34.40;;;;;;;;;;5124814;27;20047;-78
2022/01/26 04:46:43;;;;;;;84.40;33.15;;;;;;;;;;5126701;27;20039;-81
2022/01/26 04:49:09;;;;;;;87.95;36.47;;;;;;;;;;5130069;27;20044;-80
2022/01/26 04:51:35;;;;;;;92.68;36.20;;;;;;;;;;5131805;27;20135;-79
2022/01/26 04:54:02;;;;;;;86.45;34.50;;;;;;;;;;5097548;28;20404;-80
2022/01/26 04:56:28;;;;;;;89.10;35.85;;;;;;;;;;5114385;27;20491;-79
2022/01/26 04:58:54;;;;;;;89.47;37.85;;;;;;;;;;5099274;27;20053;-79
2022/01/26 05:01:20;;;;;;;93.65;36.92;;;;;;;;;;5115523;27;20050;-80
2022/01/26 05:03:46;;;;;;;90.28;35.35;;;;;;;;;;5114652;27;20035;-79
2022/01/26 05:06:12;;;;;;;89.70;36.00;;;;;;;;;;5134502;27;20065;-79
2022/01/26 05:08:39;;;;;;;96.72;37.30;;;;;;;;;;5120281;27;20035;-80
2022/01/26 05:11:08;;;;;;;84.78;35.38;;;;;;;;;;5126455;27;20057;-79
2022/01/26 05:13:34;;;;;;;87.80;36.08;;;;;;;;;;5136019;27;20135;-79
2022/01/26 05:16:01;;;;;;;80.05;34.28;;;;;;;;;;5108566;27;20084;-79
2022/01/26 05:18:29;;;;;;;82.55;35.80;;;;;;;;;;5136442;27;20053;-80
2022/01/26 05:20:56;;;;;;;83.47;34.78;;;;;;;;;;5130337;27;20475;-81
2022/01/26 05:23:23;;;;;;;86.40;34.08;;;;;;;;;;5119842;27;20042;-80
2022/01/26 05:25:49;;;;;;;84.13;34.55;;;;;;;;;;5130765;27;20507;-79
2022/01/26 05:28:15;;;;;;;83.88;33.28;;;;;;;;;;5125939;27;20399;-80
2022/01/26 05:30:41;;;;;;;77.78;32.78;;;;;;;;;;5114398;27;20079;-79
2022/01/26 05:33:07;;;;;;;90.10;35.08;;;;;;;;;;5117155;27;20047;-79
2022/01/26 05:35:34;;;;;;;85.28;33.42;;;;;;;;;;5112131;27;20391;-79
2022/01/26 05:38:00;;;;;;;83.85;32.90;;;;;;;;;;5133476;27;20043;-80
2022/01/26 05:40:26;;;;;;;83.25;33.88;;;;;;;;;;5126073;27;20035;-78
2022/01/26 05:42:52;;;;;;;79.40;33.40;;;;;;;;;;5121667;27;20060;-79
2022/01/26 05:45:22;;;;;;;82.45;33.17;;;;;;;;;;5090650;27;20043;-80
2022/01/26 05:47:48;;;;;;;82.57;33.08;;;;;;;;;;5134105;27;20087;-81
2022/01/26 05:50:15;;;;;;;84.13;32.35;;;;;;;;;;5098112;27;20039;-77
2022/01/26 05:52:41;;;;;;;81.10;32.63;;;;;;;;;;5134827;27;20043;-79
2022/01/26 05:55:07;;;;;;;88.57;34.25;;;;;;;;;;5120476;27;20142;-80
2022/01/26 05:57:33;;;;;;;80.68;32.95;;;;;;;;;;5133270;27;20047;-79
2022/01/26 05:59:59;;;;;;;81.82;33.17;;;;;;;;;;5133804;27;20387;-79
2022/01/26 06:02:26;;;;;;;78.93;32.67;;;;;;;;;;5129408;27;20103;-79
2022/01/26 06:04:52;;;;;;;80.72;32.72;;;;;;;;;;5100832;27;20038;-81
2022/01/26 06:07:18;;;;;;;79.85;31.65;;;;;;;;;;5086550;27;20092;-79
2022/01/26 06:09:44;;;;;;;80.55;31.55;;;;;;;;;;5115286;27;20551;-79
2022/01/26 06:12:10;;;;;;;79.43;31.25;;;;;;;;;;5090274;27;20049;-80
2022/01/26 06:14:37;;;;;;;75.32;29.58;;;;;;;;;;5129943;27;20042;-80
2022/01/26 06:17:03;;;;;;;79.10;30.95;;;;;;;;;;5132521;27;20039;-79
2022/01/26 06:19:29;;;;;;;76.95;31.67;;;;;;;;;;5127523;27;20039;-79
2022/01/26 06:21:55;;;;;;;83.05;31.67;;;;;;;;;;5114409;27;20036;-80
2022/01/26 06:24:22;;;;;;;85.50;31.50;;;;;;;;;;5118091;27;20125;-79
2022/01/26 06:26:48;;;;;;;77.68;30.63;;;;;;;;;;5118998;27;20097;-79
2022/01/26 06:29:14;;;;;;;77.75;30.83;;;;;;;;;;5121767;27;20456;-79
2022/01/26 06:31:42;;;;;;;71.18;30.52;;;;;;;;;;5128039;27;20046;-79
2022/01/26 06:34:10;;;;;;;74.85;30.13;;;;;;;;;;5107320;27;20130;-80
2022/01/26 06:36:37;;;;;;;79.20;29.65;;;;;;;;;;5116451;27;20039;-78
2022/01/26 06:39:04;;;;;;;78.72;31.92;;;;;;;;;;5128209;27;20122;-78
2022/01/26 06:41:31;;;;;;;73.78;29.23;;;;;;;;;;5119198;27;20400;-79
2022/01/26 06:44:07;;;;;;;79.45;31.05;;;;;;;;;;5122593;27;20373;-79
2022/01/26 06:46:52;;;;;;;76.65;29.52;;;;;;;;;;5132386;27;20042;-79
2022/01/26 06:51:53;;;;;;;76.75;30.50;;;;;;;;;;5112590;27;20067;-79
2022/01/26 06:54:20;;;;;;;69.63;28.05;;;;;;;;;;5130955;27;20055;-79
2022/01/26 06:56:46;;;;;;;73.63;28.48;;;;;;;;;;5095741;28;20126;-80
2022/01/26 06:59:13;;;;;;;73.78;28.38;;;;;;;;;;5106151;27;20122;-79
2022/01/26 07:01:40;;;;;;;71.20;28.38;;;;;;;;;;5112427;27;20042;-80
2022/01/26 07:04:06;;;;;;;73.20;28.98;;;;;;;;;;5093011;27;20047;-79
2022/01/26 07:06:32;;;;;;;69.68;27.63;;;;;;;;;;5109162;27;20100;-79
2022/01/26 07:08:58;;;;;;;71.43;27.77;;;;;;;;;;5133659;27;20446;-80
2022/01/26 07:11:24;;;;;;;68.32;28.25;;;;;;;;;;5115104;27;20050;-79
2022/01/26 07:13:57;;;;;;;69.90;28.02;;;;;;;;;;5132213;27;20039;-79
2022/01/26 07:19:46;;;;;;;68.20;26.63;;;;;;;;;;5114274;27;20043;-79
2022/01/26 07:22:12;;;;;;;65.03;26.70;;;;;;;;;;5111788;27;20483;-79
2022/01/26 07:24:38;;;;;;;65.32;27.58;;;;;;;;;;5133142;27;20051;-79
2022/01/26 07:27:05;;;;;;;66.00;26.75;;;;;;;;;;5100191;28;20067;-79
2022/01/26 07:29:32;;;;;;;65.28;26.67;;;;;;;;;;5102265;28;20058;-80
2022/01/26 07:31:59;;;;;;;67.32;27.25;;;;;;;;;;5113414;28;20044;-79
2022/01/26 07:34:25;;;;;;;65.32;26.45;;;;;;;;;;5127090;27;20046;-79
2022/01/26 07:36:54;;;;;;;67.63;27.67;;;;;;;;;;5129315;27;20423;-79
2022/01/26 07:39:31;;;;;;;68.07;28.42;;;;;;;;;;5132213;27;20114;-79
2022/01/26 07:41:59;;;;;;;65.95;27.42;;;;;;;;;;5132227;27;20035;-80
2022/01/26 07:44:25;;;;;;;67.60;27.70;;;;;;;;;;5133209;27;20035;-80
2022/01/26 07:46:52;;;;;;;67.45;28.60;;;;;;;;;;5115440;27;20087;-80
2022/01/26 07:49:18;;;;;;;66.35;28.50;;;;;;;;;;5115384;28;20535;-80
2022/01/26 07:51:44;;;;;;;66.35;29.33;;;;;;;;;;5133130;27;20120;-78
2022/01/26 07:54:12;;;;;;;66.22;27.05;;;;;;;;;;5132561;27;20079;-79
2022/01/26 07:56:42;;;;;;;66.35;28.35;;;;;;;;;;5132960;27;20043;-78
2022/01/26 07:59:08;;;;;;;74.90;28.75;;;;;;;;;;5132362;28;20511;-79
2022/01/26 08:01:35;;;;;;;62.17;27.08;;;;;;;;;;5133287;28;20122;-80
2022/01/26 08:04:01;;;;;;;69.25;29.00;;;;;;;;;;5133175;28;20050;-79
2022/01/26 08:06:28;;;;;;;71.32;30.48;;;;;;;;;;5133370;28;20107;-80
2022/01/26 08:08:54;;;;;;;64.18;27.35;;;;;;;;;;5133065;28;20047;-80
2022/01/26 08:11:20;;;;;;;69.63;29.95;;;;;;;;;;5133248;28;20131;-78
2022/01/26 08:13:46;;;;;;;65.97;30.95;;;;;;;;;;5133215;28;20050;-79
2022/01/26 08:16:12;;;;;;;69.13;29.70;;;;;;;;;;5114969;28;20650;-79
2022/01/26 08:18:38;;;;;;;68.63;30.13;;;;;;;;;;5133071;28;20049;-79
2022/01/26 08:21:06;;;;;;;70.70;30.90;;;;;;;;;;5133349;28;20426;-79
2022/01/26 08:23:33;;;;;;;71.97;30.95;;;;;;;;;;5133389;28;20122;-80
2022/01/26 08:26:00;;;;;;;75.65;31.58;;;;;;;;;;5114647;28;20039;-78
2022/01/26 08:28:32;;;;;;;76.03;32.38;;;;;;;;;;5115097;28;20169;-80
2022/01/26 08:30:58;;;;;;;75.88;31.83;;;;;;;;;;5133030;28;20452;-79
2022/01/26 08:33:24;;;;;;;81.22;33.25;;;;;;;;;;5133205;28;20039;-79
2022/01/26 08:35:51;;;;;;;73.82;33.22;;;;;;;;;;5133056;28;20047;-78
2022/01/26 08:38:17;;;;;;;77.15;33.97;;;;;;;;;;5133151;28;20035;-79
2022/01/26 08:40:45;;;;;;;80.20;34.83;;;;;;;;;;5133016;28;20050;-80
2022/01/26 08:43:11;;;;;;;89.35;36.53;;;;;;;;;;5132986;28;20039;-80
2022/01/26 08:45:37;;;;;;;82.45;34.95;;;;;;;;;;5132884;28;20039;-79
2022/01/26 08:48:04;;;;;;;84.57;37.25;;;;;;;;;;5133105;28;20472;-79
2022/01/26 08:50:30;;;;;;;88.35;38.33;;;;;;;;;;5114849;28;20099;-79
2022/01/26 08:52:56;;;;;;;89.72;39.45;;;;;;;;;;5132575;28;20467;-79
2022/01/26 08:55:22;;;;;;;85.10;38.58;;;;;;;;;;5132868;27;20058;-78
2022/01/26 08:57:48;;;;;;;96.38;40.80;;;;;;;;;;5136412;27;20099;-79
2022/01/26 09:00:16;;;;;;;88.22;40.72;;;;;;;;;;5136667;27;20046;-80
2022/01/26 09:02:43;;;;;;;89.07;39.47;;;;;;;;;;5136620;27;20039;-80
2022/01/26 09:05:09;;;;;;;98.03;44.13;;;;;;;;;;5136784;27;20122;-79
2022/01/26 09:07:35;;;;;;;101.95;44.55;;;;;;;;;;5118507;27;20099;-80
2022/01/26 09:10:02;;;;;;;96.97;42.50;;;;;;;;;;5118271;27;20514;-79
2022/01/26 09:12:31;;;;;;;94.57;42.92;;;;;;;;;;5136464;27;20123;-79
2022/01/26 09:15:00;;;;;;;99.80;44.33;;;;;;;;;;5136195;27;20050;-80
2022/01/26 09:17:30;;;;;;;96.47;44.30;;;;;;;;;;5136468;27;20432;-78
2022/01/26 09:19:59;;;;;;;103.82;42.17;;;;;;;;;;5118056;27;20099;-79
2022/01/26 09:22:25;;;;;;;98.45;44.42;;;;;;;;;;5117973;27;20035;-80
2022/01/26 09:24:51;;;;;;;105.47;45.92;;;;;;;;;;5136286;27;20039;-77
2022/01/26 09:27:18;;;;;;;109.75;47.88;;;;;;;;;;5136135;27;20157;-80
2022/01/26 09:29:44;;;;;;;106.38;47.90;;;;;;;;;;5136325;27;20043;-80
2022/01/26 09:32:11;;;;;;;104.65;45.63;;;;;;;;;;5117570;27;20555;-79
2022/01/26 09:34:39;;;;;;;101.65;45.33;;;;;;;;;;5106788;28;20100;-79
2022/01/26 09:37:09;;;;;;;103.63;46.50;;;;;;;;;;5114692;28;20392;-79
2022/01/26 09:39:38;;;;;;;110.23;47.57;;;;;;;;;;5115421;28;20385;-79
2022/01/26 09:42:06;;;;;;;106.93;49.20;;;;;;;;;;5115151;28;20044;-80
2022/01/26 09:44:32;;;;;;;105.97;48.22;;;;;;;;;;5097649;28;20134;-78
2022/01/26 09:46:58;;;;;;;115.45;50.42;;;;;;;;;;5115142;28;20492;-78
2022/01/26 09:49:32;;;;;;;116.28;50.20;;;;;;;;;;5112223;27;20043;-79
2022/01/26 09:52:06;;;;;;;111.75;50.50;;;;;;;;;;5135620;27;20467;-79
2022/01/26 09:54:32;;;;;;;112.32;50.33;;;;;;;;;;5134986;27;20554;-79
2022/01/26 09:57:03;;;;;;;112.97;49.67;;;;;;;;;;5135464;27;20065;-80
2022/01/26 09:59:30;;;;;;;113.80;51.72;;;;;;;;;;5119750;27;20059;-79
2022/01/26 10:01:57;;;;;;;113.13;51.22;;;;;;;;;;5115019;28;20043;-79
2022/01/26 10:04:23;;;;;;;116.20;51.80;;;;;;;;;;5114914;28;20079;-79
2022/01/26 10:07:08;;;;;;;117.93;53.70;;;;;;;;;;5130809;27;20066;-79
2022/01/26 10:17:39;;;;;;;115.05;50.50;;;;;;;;;;5135937;27;20047;-79
2022/01/26 10:20:06;;;;;;;122.90;52.90;;;;;;;;;;5135616;27;20039;-79
2022/01/26 10:22:33;;;;;;;116.18;52.25;;;;;;;;;;5117293;27;20074;-78
2022/01/26 10:25:08;;;;;;;124.15;54.42;;;;;;;;;;5108247;27;20038;-80
2022/01/26 10:27:37;;;;;;;127.43;56.55;;;;;;;;;;5134999;27;20050;-79
2022/01/26 10:30:06;;;;;;;125.82;57.45;;;;;;;;;;5134826;27;20061;-80
2022/01/26 10:32:33;;;;;;;122.95;55.08;;;;;;;;;;5134940;27;20064;-79
2022/01/26 10:35:02;;;;;;;131.35;57.67;;;;;;;;;;5116064;27;20074;-79
2022/01/26 10:37:29;;;;;;;125.72;56.70;;;;;;;;;;5134553;27;20053;-79
2022/01/26 10:40:08;;;;;;;131.93;59.58;;;;;;;;;;5116340;27;20083;-80
2022/01/26 10:42:34;;;;;;;130.80;58.70;;;;;;;;;;5133620;27;20117;-80
2022/01/26 10:45:14;;;;;;;130.73;60.50;;;;;;;;;;5134538;27;20441;-79
2022/01/26 10:47:45;;;;;;;132.98;59.70;;;;;;;;;;5116135;27;20468;-79
2022/01/26 10:53:11;;;;;;;117.80;52.15;;;;;;;;;;5133868;27;20513;-79
2022/01/26 10:55:38;;;;;;;119.63;55.65;;;;;;;;;;5133550;27;20087;-80
2022/01/26 10:58:07;;;;;;;122.07;54.70;;;;;;;;;;5115238;27;20155;-79
2022/01/26 11:00:37;;;;;;;118.13;54.30;;;;;;;;;;5128205;27;20390;-79
2022/01/26 11:03:04;;;;;;;115.25;53.33;;;;;;;;;;5131806;27;20042;-80
2022/01/26 11:05:30;;;;;;;117.50;54.05;;;;;;;;;;5129490;27;20122;-79
2022/01/26 11:07:57;;;;;;;120.15;54.67;;;;;;;;;;5129084;27;20142;-80
2022/01/26 11:10:31;;;;;;;123.53;54.45;;;;;;;;;;5116114;27;20090;-79
2022/01/26 11:12:57;;;;;;;120.38;54.50;;;;;;;;;;5089456;28;20039;-80
2022/01/26 11:15:23;;;;;;;123.65;55.80;;;;;;;;;;5111313;27;20079;-80
2022/01/26 11:17:51;;;;;;;121.47;56.13;;;;;;;;;;5132869;27;20042;-72
2022/01/26 11:20:20;;;;;;;115.82;53.25;;;;;;;;;;5133217;27;20046;-79
2022/01/26 11:22:57;;;;;;;113.95;52.03;;;;;;;;;;5133881;27;20050;-79
2022/01/26 11:25:24;;;;;;;114.88;53.20;;;;;;;;;;5133989;27;20082;-80
2022/01/26 11:27:52;;;;;;;113.78;52.85;;;;;;;;;;5133969;27;20164;-79
2022/01/26 11:30:18;;;;;;;111.70;49.55;;;;;;;;;;5115594;27;20074;-79
2022/01/26 11:32:51;;;;;;;113.90;51.22;;;;;;;;;;5133682;27;20383;-80
2022/01/26 11:35:19;;;;;;;104.78;50.10;;;;;;;;;;5133959;27;20039;-79
2022/01/26 11:37:51;;;;;;;110.18;50.97;;;;;;;;;;5133767;27;20051;-79
2022/01/26 11:46:07;;;;;;;103.00;50.25;;;;;;;;;;5133648;27;20134;-80
2022/01/26 11:48:33;;;;;;;112.50;50.47;;;;;;;;;;5115355;27;20416;-79
2022/01/26 11:51:00;;;;;;;107.88;48.75;;;;;;;;;;5133470;27;20039;-79
2022/01/26 11:53:27;;;;;;;106.15;49.33;;;;;;;;;;5133079;27;20177;-79
2022/01/26 11:56:01;;;;;;;106.93;49.63;;;;;;;;;;5133808;27;20043;-78
2022/01/26 11:58:33;;;;;;;109.40;47.50;;;;;;;;;;5115277;28;20070;-79
2022/01/26 12:03:59;;;;;;;107.00;48.95;;;;;;;;;;5133083;28;20111;-80
2022/01/26 12:06:27;;;;;;;107.85;48.85;;;;;;;;;;5133427;28;20396;-79
2022/01/26 12:08:55;;;;;;;102.32;46.78;;;;;;;;;;5133630;28;20121;-78
2022/01/26 12:11:23;;;;;;;106.50;48.22;;;;;;;;;;5133374;28;20173;-80
2022/01/26 12:13:57;;;;;;;104.78;46.50;;;;;;;;;;5133341;28;20043;-79
2022/01/26 12:16:24;;;;;;;106.57;47.08;;;;;;;;;;5133383;28;20435;-79
2022/01/26 12:35:15;;;;;;;105.90;47.78;;;;;;;;;;5137313;27;20087;-79
2022/01/26 12:43:12;;;;;;;100.50;45.63;;;;;;;;;;5136808;27;20075;-78
2022/01/26 12:45:39;;;;;;;106.10;47.22;;;;;;;;;;5137270;27;20039;-79
2022/01/26 12:48:08;;;;;;;99.95;45.22;;;;;;;;;;5118708;27;20051;-80
2022/01/26 12:50:34;;;;;;;98.88;44.85;;;;;;;;;;5118502;27;20099;-80
2022/01/26 12:53:00;;;;;;;99.55;45.53;;;;;;;;;;5136829;27;20387;-80
2022/01/26 12:55:28;;;;;;;98.20;45.60;;;;;;;;;;5136626;27;20459;-79
2022/01/26 12:57:54;;;;;;;101.53;44.25;;;;;;;;;;5136630;27;20167;-79
2022/01/26 13:00:21;;;;;;;93.93;42.45;;;;;;;;;;5118628;27;20043;-79
2022/01/26 13:02:48;;;;;;;89.68;39.70;;;;;;;;;;5136829;27;20047;-79
2022/01/26 13:05:15;;;;;;;88.78;43.25;;;;;;;;;;5136635;27;20043;-78
2022/01/26 13:07:42;;;;;;;88.22;41.60;;;;;;;;;;5136548;27;20043;-80
2022/01/26 13:10:15;;;;;;;91.03;41.80;;;;;;;;;;5136345;27;20081;-78
2022/01/26 13:12:42;;;;;;;84.97;41.20;;;;;;;;;;5101390;27;20066;-79
2022/01/26 13:18:14;;;;;;;82.82;39.85;;;;;;;;;;5094138;27;20048;-79
2022/01/26 13:21:07;;;;;;;80.85;37.35;;;;;;;;;;5136193;27;20054;-80
2022/01/26 13:23:39;;;;;;;78.80;38.40;;;;;;;;;;5135983;27;20050;-80
2022/01/26 13:26:32;;;;;;;78.28;37.30;;;;;;;;;;5136086;27;20377;-79
2022/01/26 13:30:14;;;;;;;72.65;35.83;;;;;;;;;;5135885;27;20039;-80
2022/01/26 13:40:06;;;;;;;76.32;35.78;;;;;;;;;;5136065;27;20130;-79
2022/01/26 13:53:06;;;;;;;74.10;36.58;;;;;;;;;;5117501;27;20076;-79
2022/01/26 14:00:52;;;;;;;74.75;37.72;;;;;;;;;;5117633;27;20043;-78
2022/01/26 14:03:21;;;;;;;71.80;36.83;;;;;;;;;;5135592;27;20046;-79
2022/01/26 14:05:47;;;;;;;78.40;35.80;;;;;;;;;;5135404;27;20050;-79
2022/01/26 14:08:13;;;;;;;71.47;35.60;;;;;;;;;;5135489;27;20088;-79
2022/01/26 14:10:43;;;;;;;69.93;36.90;;;;;;;;;;5135366;27;20126;-80
2022/01/26 14:13:09;;;;;;;75.60;34.72;;;;;;;;;;5135450;27;20050;-80
2022/01/26 14:15:43;;;;;;;74.47;35.92;;;;;;;;;;5135318;27;20050;-80
2022/01/26 14:18:37;;;;;;;75.93;36.97;;;;;;;;;;5117052;27;20084;-80
2022/01/26 14:21:25;;;;;;;67.68;33.92;;;;;;;;;;5116520;27;20414;-80
2022/01/26 14:26:31;;;;;;;80.30;37.50;;;;;;;;;;5135151;27;20499;-78
2022/01/26 14:28:58;;;;;;;80.10;37.25;;;;;;;;;;5116808;27;20043;-80
2022/01/26 14:31:53;;;;;;;73.18;35.72;;;;;;;;;;5134897;27;20114;-81
2022/01/26 14:39:30;;;;;;;76.38;35.47;;;;;;;;;;5134933;27;20490;-79
2022/01/26 14:40:32;;;;;;;75.90;35.20;;;;;;;;;;5134349;27;20192;-79
2022/01/26 14:56:13;;;;;;;73.82;36.80;;;;;;;;;;5134360;27;20039;-80
2022/01/26 15:40:07;;;;;;;72.03;35.22;;;;;;;;;;5095278;28;20101;-79
2022/01/26 15:50:56;;;;;;;69.30;33.53;;;;;;;;;;5113131;28;20040;-79
2022/01/26 15:58:50;;;;;;;71.05;35.08;;;;;;;;;;5112826;28;20044;-80
2022/01/26 16:07:00;;;;;;;68.40;34.97;;;;;;;;;;5094549;28;20101;-80
2022/01/26 17:12:29;;;;;;;69.43;35.80;;;;;;;;;;5094100;28;20130;-80
2022/01/26 18:04:38;;;;;;;73.93;35.67;;;;;;;;;;5115042;28;20043;-80
2022/01/26 18:17:59;;;;;;;72.35;35.75;;;;;;;;;;5114854;28;20189;-78
2022/01/26 18:26:09;;;;;;;74.50;37.05;;;;;;;;;;5114418;28;20044;-79
2022/01/26 18:50:07;;;;;;;70.80;36.42;;;;;;;;;;5114343;28;20131;-78
2022/01/26 18:52:33;;;;;;;66.65;32.88;;;;;;;;;;5114075;28;20051;-80
2022/01/26 18:54:59;;;;;;;67.53;35.50;;;;;;;;;;5095780;28;20051;-80
2022/01/26 18:57:25;;;;;;;74.53;34.92;;;;;;;;;;5096046;28;20044;-79
2022/01/26 18:59:51;;;;;;;69.38;35.80;;;;;;;;;;5113729;28;20475;-78
2022/01/26 19:02:17;;;;;;;65.63;35.90;;;;;;;;;;5095618;28;20576;-79
2022/01/26 19:04:47;;;;;;;69.15;34.05;;;;;;;;;;5113743;28;20108;-79
2022/01/26 19:07:14;;;;;;;58.10;33.30;;;;;;;;;;5113733;28;20130;-80
2022/01/26 19:09:44;;;;;;;68.65;34.47;;;;;;;;;;5113856;28;20539;-79
2022/01/26 19:12:13;;;;;;;62.20;34.65;;;;;;;;;;5095507;28;20130;-80
2022/01/26 19:14:43;;;;;;;62.67;35.13;;;;;;;;;;5113481;28;20039;-80
2022/01/26 19:17:35;;;;;;;66.07;33.67;;;;;;;;;;5095587;28;20488;-79
2022/01/26 19:20:24;;;;;;;62.13;33.08;;;;;;;;;;5112988;28;20043;-80
2022/01/26 19:23:05;;;;;;;63.63;32.75;;;;;;;;;;5113552;28;20423;-81
2022/01/26 19:33:09;;;;;;;62.20;32.50;;;;;;;;;;5113247;28;20043;-79
2022/01/26 19:51:21;;;;;;;63.17;32.92;;;;;;;;;;5113172;28;20051;-78
2022/01/26 19:53:47;;;;;;;64.90;33.15;;;;;;;;;;5094584;28;20051;-79
2022/01/26 19:56:13;;;;;;;62.60;33.20;;;;;;;;;;5112647;28;20051;-79
2022/01/26 19:58:39;;;;;;;67.60;35.63;;;;;;;;;;5112780;28;20616;-79
2022/01/26 20:01:06;;;;;;;61.22;32.38;;;;;;;;;;5113330;28;20047;-78
2022/01/26 20:03:34;;;;;;;62.42;34.33;;;;;;;;;;5094939;28;20059;-80
2022/01/26 20:06:03;;;;;;;67.82;36.25;;;;;;;;;;5112925;28;20040;-81
2022/01/26 20:08:36;;;;;;;64.85;36.92;;;;;;;;;;5113085;28;20039;-80
2022/01/26 20:11:24;;;;;;;62.97;34.13;;;;;;;;;;5094668;28;20496;-78
2022/01/26 20:13:50;;;;;;;63.95;35.28;;;;;;;;;;5112932;28;20141;-79
2022/01/26 20:16:16;;;;;;;64.50;35.55;;;;;;;;;;5112766;28;20075;-78
2022/01/26 20:18:42;;;;;;;61.45;35.15;;;;;;;;;;5094995;28;20084;-79
2022/01/26 20:21:09;;;;;;;60.30;34.63;;;;;;;;;;5112830;28;21249;-79
2022/01/26 20:23:36;;;;;;;62.17;35.80;;;;;;;;;;5094631;28;20043;-78
2022/01/26 20:26:03;;;;;;;61.50;35.30;;;;;;;;;;5094847;28;20054;-78
2022/01/26 20:28:31;;;;;;;58.38;32.38;;;;;;;;;;5094764;28;20036;-79
2022/01/26 20:30:59;;;;;;;60.28;33.97;;;;;;;;;;5112849;28;20043;-79
2022/01/26 20:33:26;;;;;;;63.63;33.65;;;;;;;;;;5094688;28;20038;-78
2022/01/26 20:35:52;;;;;;;65.53;34.35;;;;;;;;;;5112604;28;20086;-79
2022/01/26 20:38:18;;;;;;;60.42;33.88;;;;;;;;;;5094342;28;20122;-79
2022/01/26 20:40:45;;;;;;;56.35;34.20;;;;;;;;;;5112805;28;20039;-78
2022/01/26 20:43:12;;;;;;;56.85;34.10;;;;;;;;;;5112603;28;20126;-78
2022/01/26 20:45:38;;;;;;;62.88;35.28;;;;;;;;;;5112271;28;20556;-78
2022/01/26 20:48:05;;;;;;;60.80;35.40;;;;;;;;;;5112644;28;20043;-79
2022/01/26 20:50:32;;;;;;;57.72;33.53;;;;;;;;;;5112271;28;20043;-79
2022/01/26 20:52:59;;;;;;;58.28;33.97;;;;;;;;;;5096841;28;20066;-79
2022/01/26 20:55:25;;;;;;;61.20;36.55;;;;;;;;;;5116115;28;20055;-79
2022/01/26 20:57:51;;;;;;;62.85;37.13;;;;;;;;;;5098020;28;20476;-79
2022/01/26 21:00:19;;;;;;;65.75;36.17;;;;;;;;;;5098007;28;20069;-79
2022/01/26 21:02:49;;;;;;;66.63;38.53;;;;;;;;;;5116274;28;20079;-79
2022/01/26 21:05:15;;;;;;;59.05;34.70;;;;;;;;;;5116135;28;20392;-79
2022/01/26 21:07:42;;;;;;;61.88;32.90;;;;;;;;;;5116324;28;20047;-79
2022/01/26 21:10:10;;;;;;;62.85;36.33;;;;;;;;;;5116401;28;20120;-79
2022/01/26 21:12:37;;;;;;;59.85;34.22;;;;;;;;;;5116048;28;20079;-79